createdAt,value
2022-08-23T00:00:59.432Z,2.58
2022-08-23T00:02:30.854Z,2.72
2022-08-23T00:04:02.342Z,2.35
2022-08-23T00:05:33.820Z,2.35
2022-08-23T00:07:05.238Z,2.34
2022-08-23T00:08:36.622Z,2.37
2022-08-23T00:10:08.379Z,2.47
2022-08-23T00:11:39.858Z,2.57
2022-08-23T00:13:11.233Z,2.52
2022-08-23T00:14:42.660Z,2.37
2022-08-23T00:16:17.020Z,2.44
2022-08-23T00:17:48.620Z,2.40
2022-08-23T00:19:20.033Z,2.49
2022-08-23T00:20:51.447Z,2.46
2022-08-23T00:22:22.997Z,2.38
2022-08-23T00:23:54.401Z,2.35
2022-08-23T00:25:25.868Z,2.64
2022-08-23T00:26:57.343Z,2.60
2022-08-23T00:28:28.706Z,2.54
2022-08-23T00:30:00.082Z,2.55
2022-08-23T00:31:31.617Z,2.32
2022-08-23T00:33:03.031Z,2.34
2022-08-23T00:34:34.501Z,2.19
2022-08-23T00:36:05.886Z,2.44
2022-08-23T00:37:37.269Z,2.50
2022-08-23T00:39:08.697Z,2.70
2022-08-23T00:40:40.125Z,3.03
2022-08-23T00:42:11.488Z,3.29
2022-08-23T00:43:42.965Z,2.79
2022-08-23T00:45:14.465Z,2.68
2022-08-23T00:46:46.086Z,2.58
2022-08-23T00:48:17.492Z,2.72
2022-08-23T00:49:48.888Z,2.55
2022-08-23T00:51:20.418Z,2.49
2022-08-23T00:52:51.906Z,2.61
2022-08-23T00:54:23.406Z,2.83
2022-08-23T00:55:54.882Z,2.69
2022-08-23T00:57:26.343Z,2.46
2022-08-23T00:58:57.739Z,2.53
2022-08-23T01:00:29.178Z,2.77
2022-08-23T01:02:00.657Z,2.56
2022-08-23T01:03:39.036Z,2.44
2022-08-23T01:05:10.840Z,2.71
2022-08-23T01:06:42.580Z,2.54
2022-08-23T01:08:13.938Z,2.61
2022-08-23T01:09:45.513Z,2.50
2022-08-23T01:11:17.076Z,2.60
2022-08-23T01:12:48.657Z,2.88
2022-08-23T01:14:20.029Z,2.79
2022-08-23T01:15:51.486Z,2.77
2022-08-23T01:17:22.970Z,2.80
2022-08-23T01:18:54.423Z,2.57
2022-08-23T01:20:27.003Z,2.57
2022-08-23T01:21:58.682Z,2.53
2022-08-23T01:23:30.132Z,2.74
2022-08-23T01:25:08.087Z,2.93
2022-08-23T01:26:40.223Z,3.04
2022-08-23T01:28:11.831Z,2.69
2022-08-23T01:29:43.446Z,2.53
2022-08-23T01:31:14.838Z,2.72
2022-08-23T01:32:46.634Z,2.63
2022-08-23T01:34:18.014Z,2.80
2022-08-23T01:35:49.449Z,3.06
2022-08-23T01:37:21.060Z,2.68
2022-08-23T01:38:52.724Z,2.77
2022-08-23T01:40:24.352Z,2.79
2022-08-23T01:41:56.100Z,2.57
2022-08-23T01:43:27.532Z,2.72
2022-08-23T01:44:58.974Z,2.69
2022-08-23T01:46:30.325Z,2.89
2022-08-23T01:48:02.022Z,2.80
2022-08-23T01:49:33.694Z,2.86
2022-08-23T01:51:05.014Z,2.84
2022-08-23T01:52:36.425Z,2.99
2022-08-23T01:54:07.880Z,2.75
2022-08-23T01:55:39.361Z,2.77
2022-08-23T01:57:10.831Z,2.77
2022-08-23T01:58:42.431Z,2.92
2022-08-23T02:00:13.792Z,2.85
2022-08-23T02:01:45.527Z,2.72
2022-08-23T02:03:17.001Z,2.78
2022-08-23T02:04:48.630Z,2.75
2022-08-23T02:06:20.195Z,2.93
2022-08-23T02:07:56.672Z,2.58
2022-08-23T02:09:28.231Z,2.58
2022-08-23T02:10:59.806Z,2.49
2022-08-23T02:12:31.358Z,2.74
2022-08-23T02:14:02.696Z,2.93
2022-08-23T02:15:34.176Z,2.74
2022-08-23T02:17:05.721Z,2.73
2022-08-23T02:18:37.104Z,2.84
2022-08-23T02:20:08.557Z,2.76
2022-08-23T02:21:40.177Z,2.87
2022-08-23T02:23:11.531Z,2.90
2022-08-23T02:24:43.212Z,2.99
2022-08-23T02:26:14.575Z,3.06
2022-08-23T02:27:46.084Z,2.77
2022-08-23T02:29:17.633Z,2.81
2022-08-23T02:30:49.359Z,2.79
2022-08-23T02:32:21.295Z,3.11
2022-08-23T02:33:52.775Z,3.01
2022-08-23T02:35:24.202Z,2.86
2022-08-23T02:37:00.635Z,2.82
2022-08-23T02:38:32.303Z,3.02
2022-08-23T02:40:03.735Z,2.98
2022-08-23T02:41:35.308Z,2.88
2022-08-23T02:43:06.764Z,3.09
2022-08-23T02:44:38.306Z,2.70
2022-08-23T02:46:09.621Z,2.58
2022-08-23T02:47:41.029Z,2.81
2022-08-23T02:49:12.466Z,2.85
2022-08-23T02:50:43.964Z,2.50
2022-08-23T02:52:15.404Z,2.74
2022-08-23T02:53:46.800Z,2.47
2022-08-23T02:55:18.173Z,2.46
2022-08-23T02:56:49.553Z,2.51
2022-08-23T02:58:20.976Z,2.75
2022-08-23T02:59:52.349Z,2.61
2022-08-23T03:01:23.811Z,2.66
2022-08-23T03:02:55.220Z,2.60
2022-08-23T03:04:26.612Z,2.50
2022-08-23T03:06:24.165Z,2.55
2022-08-23T03:07:57.572Z,2.78
2022-08-23T03:09:29.187Z,2.69
2022-08-23T03:11:00.872Z,2.69
2022-08-23T03:12:41.334Z,2.73
2022-08-23T03:14:12.970Z,2.50
2022-08-23T03:15:44.435Z,2.78
2022-08-23T03:17:15.801Z,2.77
2022-08-23T03:18:47.355Z,2.87
2022-08-23T03:20:18.753Z,2.54
2022-08-23T03:21:50.405Z,2.67
2022-08-23T03:23:22.260Z,2.86
2022-08-23T03:24:53.841Z,2.86
2022-08-23T03:26:25.289Z,2.53
2022-08-23T03:27:56.656Z,2.77
2022-08-23T03:29:28.300Z,3.06
2022-08-23T03:30:59.673Z,3.18
2022-08-23T03:32:31.324Z,3.05
2022-08-23T03:34:02.815Z,2.74
2022-08-23T03:35:34.194Z,2.79
2022-08-23T03:37:05.816Z,2.79
2022-08-23T03:38:37.187Z,2.74
2022-08-23T03:40:08.608Z,2.89
2022-08-23T03:41:40.233Z,2.68
2022-08-23T03:43:11.608Z,2.77
2022-08-23T03:44:43.016Z,2.80
2022-08-23T03:46:14.541Z,2.86
2022-08-23T03:47:45.903Z,3.04
2022-08-23T03:49:17.266Z,2.62
2022-08-23T03:50:48.991Z,2.81
2022-08-23T03:52:20.329Z,2.71
2022-08-23T03:53:51.977Z,2.59
2022-08-23T03:55:23.605Z,2.37
2022-08-23T03:56:54.977Z,2.42
2022-08-23T03:58:26.505Z,2.46
2022-08-23T03:59:57.852Z,2.21
2022-08-23T04:01:29.365Z,2.20
2022-08-23T04:03:13.491Z,2.37
2022-08-23T04:04:44.865Z,2.24
2022-08-23T04:06:16.275Z,2.17
2022-08-23T04:07:47.651Z,2.29
2022-08-23T04:09:18.967Z,2.24
2022-08-23T04:10:50.329Z,2.24
2022-08-23T04:12:21.673Z,2.27
2022-08-23T04:13:53.042Z,2.25
2022-08-23T04:15:24.614Z,2.24
2022-08-23T04:16:56.020Z,2.21
2022-08-23T04:18:28.429Z,2.40
2022-08-23T04:20:01.123Z,2.48
2022-08-23T04:21:32.469Z,2.35
2022-08-23T04:23:04.169Z,2.41
2022-08-23T04:24:35.679Z,2.45
2022-08-23T04:26:06.975Z,2.40
2022-08-23T04:28:03.760Z,2.44
2022-08-23T04:29:35.416Z,2.60
2022-08-23T04:31:06.867Z,2.49
2022-08-23T04:32:38.378Z,2.49
2022-08-23T04:34:10.051Z,2.45
2022-08-23T04:35:45.547Z,2.45
2022-08-23T04:37:16.994Z,2.25
2022-08-23T04:38:48.454Z,2.32
2022-08-23T04:40:20.057Z,2.29
2022-08-23T04:41:51.648Z,2.09
2022-08-23T04:43:23.009Z,2.24
2022-08-23T04:44:54.447Z,2.15
2022-08-23T04:46:25.812Z,2.19
2022-08-23T04:47:57.384Z,2.10
2022-08-23T04:49:28.909Z,1.91
2022-08-23T04:51:00.354Z,2.11
2022-08-23T04:52:31.748Z,2.13
2022-08-23T04:54:03.217Z,2.06
2022-08-23T04:55:36.423Z,2.45
2022-08-23T04:57:08.105Z,2.38
2022-08-23T04:58:39.520Z,2.48
2022-08-23T05:00:10.921Z,2.44
2022-08-23T05:01:42.395Z,2.68
2022-08-23T05:03:14.062Z,2.73
2022-08-23T05:04:45.417Z,2.84
2022-08-23T05:06:16.982Z,3.26
2022-08-23T05:07:48.434Z,3.52
2022-08-23T05:09:20.698Z,3.46
2022-08-23T05:10:52.355Z,3.16
2022-08-23T05:12:23.691Z,3.00
2022-08-23T05:13:56.151Z,3.41
2022-08-23T05:15:27.507Z,3.72
2022-08-23T05:16:58.887Z,3.75
2022-08-23T05:18:30.231Z,4.05
2022-08-23T05:20:01.890Z,3.71
2022-08-23T05:21:33.294Z,3.50
2022-08-23T05:23:04.793Z,3.77
2022-08-23T05:24:36.298Z,3.97
2022-08-23T05:26:07.705Z,3.65
2022-08-23T05:27:39.097Z,3.71
2022-08-23T05:29:10.427Z,3.63
2022-08-23T05:30:41.838Z,4.16
2022-08-23T05:32:31.618Z,3.69
2022-08-23T05:34:04.638Z,3.59
2022-08-23T05:35:36.177Z,3.38
2022-08-23T05:37:07.917Z,3.29
2022-08-23T05:38:39.407Z,3.80
2022-08-23T05:40:10.798Z,3.42
2022-08-23T05:41:42.364Z,3.49
2022-08-23T05:43:13.878Z,3.66
2022-08-23T05:44:45.358Z,3.90
2022-08-23T05:46:18.453Z,3.82
2022-08-23T05:47:51.606Z,3.93
2022-08-23T05:49:27.260Z,4.22
2022-08-23T05:50:58.878Z,4.03
2022-08-23T05:52:30.319Z,3.69
2022-08-23T05:54:01.691Z,3.54
2022-08-23T05:55:35.099Z,3.94
2022-08-23T05:57:06.732Z,3.69
2022-08-23T05:58:38.131Z,4.24
2022-08-23T06:00:10.302Z,3.72
2022-08-23T06:01:41.771Z,3.40
2022-08-23T06:03:13.364Z,3.72
2022-08-23T06:04:44.762Z,3.30
2022-08-23T06:06:16.298Z,2.78
2022-08-23T06:07:47.747Z,2.81
2022-08-23T06:09:20.794Z,2.76
2022-08-23T06:10:52.184Z,2.96
2022-08-23T06:12:23.580Z,2.87
2022-08-23T06:13:55.162Z,2.92
2022-08-23T06:15:26.672Z,2.98
2022-08-23T06:16:58.071Z,3.06
2022-08-23T06:18:29.458Z,3.21
2022-08-23T06:20:04.130Z,3.36
2022-08-23T06:21:35.553Z,3.59
2022-08-23T06:23:06.896Z,3.55
2022-08-23T06:24:38.412Z,3.64
2022-08-23T06:26:09.972Z,3.72
2022-08-23T06:27:41.393Z,4.03
2022-08-23T06:29:12.795Z,4.49
2022-08-23T06:30:44.425Z,3.77
2022-08-23T06:32:15.956Z,3.65
2022-08-23T06:33:47.676Z,3.15
2022-08-23T06:35:38.405Z,2.84
2022-08-23T06:37:10.938Z,3.02
2022-08-23T06:38:42.546Z,2.92
2022-08-23T06:40:14.169Z,2.69
2022-08-23T06:41:49.326Z,3.02
2022-08-23T06:43:20.707Z,2.91
2022-08-23T06:44:52.182Z,3.08
2022-08-23T06:46:28.218Z,2.71
2022-08-23T06:48:01.171Z,2.67
2022-08-23T06:49:32.608Z,2.42
2022-08-23T06:51:03.969Z,2.67
2022-08-23T06:52:37.632Z,2.69
2022-08-23T06:54:09.040Z,2.61
2022-08-23T06:55:40.596Z,2.37
2022-08-23T06:57:12.089Z,2.49
2022-08-23T06:58:43.830Z,2.35
2022-08-23T07:00:20.170Z,2.47
2022-08-23T07:01:53.756Z,2.49
2022-08-23T07:03:25.363Z,2.32
2022-08-23T07:04:56.872Z,2.76
2022-08-23T07:06:28.266Z,2.25
2022-08-23T07:07:59.684Z,2.36
2022-08-23T07:09:31.195Z,2.21
2022-08-23T07:11:02.667Z,2.65
2022-08-23T07:12:34.210Z,2.47
2022-08-23T07:14:05.640Z,2.30
2022-08-23T07:15:37.201Z,2.38
2022-08-23T07:17:08.702Z,2.69
2022-08-23T07:18:40.250Z,2.50
2022-08-23T07:20:11.705Z,2.48
2022-08-23T07:21:43.116Z,2.40
2022-08-23T07:23:14.598Z,2.46
2022-08-23T07:24:46.157Z,2.48
2022-08-23T07:26:17.680Z,2.38
2022-08-23T07:27:49.252Z,2.43
2022-08-23T07:29:20.761Z,2.26
2022-08-23T07:30:52.287Z,2.07
2022-08-23T07:32:23.884Z,1.98
2022-08-23T07:33:58.755Z,1.94
2022-08-23T07:35:30.731Z,1.86
2022-08-23T07:37:02.381Z,2.15
2022-08-23T07:38:33.841Z,2.26
2022-08-23T07:40:05.402Z,2.18
2022-08-23T07:41:36.866Z,2.10
2022-08-23T07:43:08.429Z,2.01
2022-08-23T07:44:40.001Z,2.25
2022-08-23T07:46:12.570Z,2.02
2022-08-23T07:47:49.653Z,2.01
2022-08-23T07:49:21.901Z,1.99
2022-08-23T07:50:57.920Z,2.00
2022-08-23T07:52:29.828Z,1.99
2022-08-23T07:54:01.787Z,1.92
2022-08-23T07:55:33.403Z,1.98
2022-08-23T07:57:04.985Z,1.86
2022-08-23T07:58:36.584Z,2.12
2022-08-23T08:00:08.052Z,2.04
2022-08-23T08:01:39.617Z,2.00
2022-08-23T08:03:11.411Z,1.94
2022-08-23T08:04:43.365Z,2.02
2022-08-23T08:06:15.020Z,2.07
2022-08-23T08:07:46.547Z,2.26
2022-08-23T08:09:23.152Z,2.23
2022-08-23T08:10:54.622Z,2.30
2022-08-23T08:12:26.439Z,2.53
2022-08-23T08:13:58.032Z,2.31
2022-08-23T08:15:35.083Z,2.14
2022-08-23T08:17:12.037Z,2.14
2022-08-23T08:18:43.731Z,1.95
2022-08-23T08:20:15.164Z,2.03
2022-08-23T08:21:47.714Z,1.99
2022-08-23T08:23:19.357Z,1.99
2022-08-23T08:24:50.863Z,2.01
2022-08-23T08:26:22.378Z,2.34
2022-08-23T08:27:53.901Z,2.13
2022-08-23T08:29:25.605Z,2.33
2022-08-23T08:30:57.251Z,2.16
2022-08-23T08:32:28.751Z,2.23
2022-08-23T08:34:00.298Z,2.29
2022-08-23T08:35:31.942Z,2.17
2022-08-23T08:37:03.904Z,2.13
2022-08-23T08:38:36.805Z,2.21
2022-08-23T08:40:10.774Z,2.26
2022-08-23T08:41:42.275Z,2.47
2022-08-23T08:43:13.648Z,2.17
2022-08-23T08:44:45.175Z,2.08
2022-08-23T08:46:17.060Z,2.23
2022-08-23T08:47:48.642Z,2.31
2022-08-23T08:49:25.332Z,2.33
2022-08-23T08:50:56.915Z,2.38
2022-08-23T08:52:29.748Z,1.99
2022-08-23T08:54:05.198Z,1.94
2022-08-23T08:55:36.712Z,2.11
2022-08-23T08:57:08.557Z,2.16
2022-08-23T08:58:40.158Z,2.22
2022-08-23T09:00:11.905Z,2.18
2022-08-23T09:01:43.528Z,2.34
2022-08-23T09:03:15.134Z,2.18
2022-08-23T09:04:46.720Z,2.12
2022-08-23T09:06:18.273Z,2.33
2022-08-23T09:07:49.872Z,2.50
2022-08-23T09:09:21.584Z,2.55
2022-08-23T09:10:53.327Z,2.30
2022-08-23T09:12:24.753Z,2.62
2022-08-23T09:13:56.212Z,2.14
2022-08-23T09:15:27.774Z,2.22
2022-08-23T09:17:01.540Z,2.20
2022-08-23T09:18:33.046Z,2.19
2022-08-23T09:20:04.490Z,2.51
2022-08-23T09:21:35.992Z,2.30
2022-08-23T09:23:07.476Z,2.19
2022-08-23T09:24:39.721Z,2.17
2022-08-23T09:26:11.300Z,2.46
2022-08-23T09:27:43.057Z,2.35
2022-08-23T09:29:14.561Z,2.66
2022-08-23T09:30:47.312Z,2.34
2022-08-23T09:32:19.054Z,2.23
2022-08-23T09:33:50.607Z,2.38
2022-08-23T09:35:22.038Z,2.41
2022-08-23T09:36:53.651Z,2.35
2022-08-23T09:38:25.138Z,2.14
2022-08-23T09:39:56.882Z,2.43
2022-08-23T09:41:28.414Z,2.58
2022-08-23T09:43:00.146Z,2.58
2022-08-23T09:44:31.684Z,2.24
2022-08-23T09:46:03.579Z,2.21
2022-08-23T09:47:37.832Z,2.44
2022-08-23T09:49:16.324Z,2.14
2022-08-23T09:50:47.836Z,2.41
2022-08-23T09:52:22.091Z,2.49
2022-08-23T09:53:53.960Z,2.13
2022-08-23T09:55:25.586Z,2.10
2022-08-23T09:56:57.371Z,2.31
2022-08-23T09:58:28.859Z,2.33
2022-08-23T10:00:00.484Z,2.31
2022-08-23T10:01:35.432Z,2.53
2022-08-23T10:03:09.925Z,2.32
2022-08-23T10:04:41.543Z,2.33
2022-08-23T10:06:13.195Z,2.20
2022-08-23T10:07:44.696Z,2.37
2022-08-23T10:09:16.319Z,2.42
2022-08-23T10:10:48.632Z,2.30
2022-08-23T10:12:22.772Z,2.24
2022-08-23T10:13:54.363Z,2.14
2022-08-23T10:15:25.914Z,2.32
2022-08-23T10:16:58.641Z,2.57
2022-08-23T10:18:30.166Z,2.35
2022-08-23T10:20:01.703Z,2.29
2022-08-23T10:21:33.494Z,2.29
2022-08-23T10:23:04.974Z,2.32
2022-08-23T10:24:36.625Z,2.44
2022-08-23T10:26:08.127Z,2.46
2022-08-23T10:27:39.678Z,2.43
2022-08-23T10:29:11.342Z,2.17
2022-08-23T10:30:42.983Z,2.38
2022-08-23T10:32:14.539Z,2.78
2022-08-23T10:33:46.157Z,2.28
2022-08-23T10:35:17.903Z,2.60
2022-08-23T10:36:51.028Z,2.35
2022-08-23T10:38:23.063Z,2.34
2022-08-23T10:39:54.620Z,2.37
2022-08-23T10:41:26.575Z,2.34
2022-08-23T10:42:59.206Z,2.39
2022-08-23T10:44:30.713Z,2.43
2022-08-23T10:46:02.297Z,2.49
2022-08-23T10:47:34.132Z,2.34
2022-08-23T10:49:05.695Z,2.45
2022-08-23T10:50:37.304Z,2.28
2022-08-23T10:52:08.824Z,2.34
2022-08-23T10:53:41.582Z,2.29
2022-08-23T10:55:13.194Z,2.45
2022-08-23T10:56:50.259Z,2.28
2022-08-23T10:58:24.025Z,2.35
2022-08-23T10:59:55.845Z,2.47
2022-08-23T11:01:27.522Z,2.19
2022-08-23T11:02:59.357Z,2.25
2022-08-23T11:04:31.176Z,2.41
2022-08-23T11:06:02.644Z,2.32
2022-08-23T11:07:39.150Z,2.34
2022-08-23T11:09:10.789Z,2.17
2022-08-23T11:10:56.029Z,2.28
2022-08-23T11:12:29.284Z,2.40
2022-08-23T11:14:05.837Z,2.34
2022-08-23T11:15:38.018Z,2.03
2022-08-23T11:17:16.450Z,2.24
2022-08-23T11:18:48.860Z,2.16
2022-08-23T11:20:20.531Z,2.26
2022-08-23T11:21:52.126Z,2.32
2022-08-23T11:23:23.771Z,2.02
2022-08-23T11:24:55.332Z,2.14
2022-08-23T11:26:27.475Z,2.17
2022-08-23T11:27:59.086Z,2.28
2022-08-23T11:29:30.833Z,1.94
2022-08-23T11:31:02.770Z,1.97
2022-08-23T11:32:34.463Z,2.04
2022-08-23T11:34:06.108Z,2.10
2022-08-23T11:35:40.503Z,2.29
2022-08-23T11:37:15.151Z,1.98
2022-08-23T11:38:46.993Z,1.90
2022-08-23T11:40:18.923Z,1.96
2022-08-23T11:41:50.951Z,1.96
2022-08-23T11:43:27.675Z,2.13
2022-08-23T11:44:59.406Z,2.09
2022-08-23T11:46:31.101Z,2.10
2022-08-23T11:48:02.914Z,2.05
2022-08-23T11:49:34.592Z,1.95
2022-08-23T11:51:06.287Z,2.21
2022-08-23T11:52:38.459Z,2.15
2022-08-23T11:54:10.522Z,2.11
2022-08-23T11:55:47.176Z,2.07
2022-08-23T11:57:18.821Z,2.18
2022-08-23T11:58:51.361Z,2.44
2022-08-23T12:00:29.114Z,2.20
2022-08-23T12:02:01.453Z,2.24
2022-08-23T12:03:38.351Z,2.20
2022-08-23T12:05:10.143Z,2.33
2022-08-23T12:06:42.064Z,2.12
2022-08-23T12:08:13.893Z,1.99
2022-08-23T12:09:50.663Z,1.95
2022-08-23T12:11:22.830Z,2.22
2022-08-23T12:12:54.494Z,2.28
2022-08-23T12:14:26.152Z,2.04
2022-08-23T12:15:57.853Z,1.95
2022-08-23T12:17:29.745Z,2.42
2022-08-23T12:19:05.635Z,2.34
2022-08-23T12:20:39.447Z,2.41
2022-08-23T12:22:11.098Z,2.26
2022-08-23T12:23:42.779Z,2.37
2022-08-23T12:25:14.539Z,2.11
2022-08-23T12:26:46.286Z,2.20
2022-08-23T12:28:18.110Z,2.18
2022-08-23T12:29:50.018Z,2.27
2022-08-23T12:31:21.818Z,2.51
2022-08-23T12:32:54.402Z,2.33
2022-08-23T12:34:26.127Z,2.26
2022-08-23T12:35:57.809Z,2.28
2022-08-23T12:37:29.459Z,2.45
2022-08-23T12:39:01.145Z,2.52
2022-08-23T12:40:32.886Z,2.33
2022-08-23T12:42:04.657Z,2.44
2022-08-23T12:43:38.720Z,2.20
2022-08-23T12:45:10.375Z,2.12
2022-08-23T12:46:42.186Z,2.08
2022-08-23T12:48:14.011Z,2.10
2022-08-23T12:49:45.698Z,2.24
2022-08-23T12:51:17.385Z,2.04
2022-08-23T12:52:49.288Z,1.97
2022-08-23T12:54:23.225Z,1.85
2022-08-23T12:55:55.089Z,2.00
2022-08-23T12:57:27.649Z,2.14
2022-08-23T12:58:59.674Z,2.02
2022-08-23T13:00:31.478Z,2.24
2022-08-23T13:02:03.378Z,2.23
2022-08-23T13:03:35.051Z,2.28
2022-08-23T13:05:11.377Z,2.46
2022-08-23T13:06:44.978Z,2.20
2022-08-23T13:08:16.770Z,1.97
2022-08-23T13:09:53.955Z,1.95
2022-08-23T13:11:27.249Z,1.96
2022-08-23T13:12:59.226Z,1.81
2022-08-23T13:14:31.399Z,1.87
2022-08-23T13:16:05.357Z,1.69
2022-08-23T13:17:37.080Z,2.01
2022-08-23T13:19:08.679Z,1.99
2022-08-23T13:20:42.091Z,2.02
2022-08-23T13:22:13.809Z,1.88
2022-08-23T13:23:45.515Z,2.02
2022-08-23T13:25:28.683Z,2.00
2022-08-23T13:27:01.441Z,2.10
2022-08-23T13:28:33.068Z,1.91
2022-08-23T13:30:05.020Z,1.84
2022-08-23T13:31:37.071Z,1.97
2022-08-23T13:33:08.894Z,1.98
2022-08-23T13:34:45.876Z,1.89
2022-08-23T13:36:21.284Z,1.94
2022-08-23T13:37:53.304Z,1.99
2022-08-23T13:39:25.126Z,2.01
2022-08-23T13:40:56.858Z,2.14
2022-08-23T13:42:28.468Z,2.18
2022-08-23T13:44:00.196Z,2.00
2022-08-23T13:45:32.202Z,2.07
2022-08-23T13:47:03.783Z,2.04
2022-08-23T13:48:35.425Z,1.94
2022-08-23T13:50:11.490Z,1.87
2022-08-23T13:51:43.366Z,1.90
2022-08-23T13:53:25.308Z,2.11
2022-08-23T13:54:57.173Z,2.01
2022-08-23T13:56:29.238Z,1.90
2022-08-23T13:58:00.818Z,2.16
2022-08-23T13:59:32.576Z,2.01
2022-08-23T14:01:04.229Z,2.07
2022-08-23T14:02:36.405Z,1.91
2022-08-23T14:04:08.107Z,1.78
2022-08-23T14:05:40.197Z,1.84
2022-08-23T14:07:12.614Z,2.03
2022-08-23T14:08:44.554Z,2.05
2022-08-23T14:10:16.213Z,1.86
2022-08-23T14:11:50.227Z,2.00
2022-08-23T14:13:22.961Z,1.91
2022-08-23T14:14:54.700Z,1.94
2022-08-23T14:16:34.185Z,1.94
2022-08-23T14:18:06.382Z,2.12
2022-08-23T14:21:39.912Z,1.82
2022-08-23T14:23:12.063Z,1.82
2022-08-23T14:24:45.432Z,1.66
2022-08-23T14:26:17.367Z,1.94
2022-08-23T14:27:49.079Z,1.83
2022-08-23T14:29:22.346Z,1.85
2022-08-23T14:30:54.483Z,1.77
2022-08-23T14:32:26.207Z,1.98
2022-08-23T14:34:01.855Z,2.53
2022-08-23T14:35:33.992Z,2.05
2022-08-23T14:38:00.589Z,1.94
2022-08-23T14:39:34.551Z,1.98
2022-08-23T14:41:06.212Z,1.89
2022-08-23T14:42:38.157Z,1.70
2022-08-23T14:44:10.191Z,1.80
2022-08-23T14:45:41.919Z,1.69
2022-08-23T14:47:13.551Z,1.84
2022-08-23T14:48:45.101Z,1.52
2022-08-23T14:50:16.765Z,1.68
2022-08-23T14:51:48.433Z,1.81
2022-08-23T14:53:20.017Z,1.71
2022-08-23T14:54:56.858Z,1.89
2022-08-23T14:56:28.463Z,1.72
2022-08-23T14:58:05.483Z,1.80
2022-08-23T14:59:37.037Z,1.82
2022-08-23T15:01:09.116Z,1.97
2022-08-23T15:02:40.992Z,1.89
2022-08-23T15:04:12.575Z,1.89
2022-08-23T15:05:44.213Z,1.81
2022-08-23T15:07:18.579Z,1.83
2022-08-23T15:08:50.803Z,2.14
2022-08-23T15:10:50.298Z,1.79
2022-08-23T15:14:25.374Z,1.82
2022-08-23T15:15:56.934Z,2.00
2022-08-23T15:17:31.477Z,1.92
2022-08-23T15:19:03.576Z,1.87
2022-08-23T15:20:35.240Z,1.88
2022-08-23T15:22:18.288Z,1.88
2022-08-23T15:23:53.077Z,1.83
2022-08-23T15:25:24.714Z,2.03
2022-08-23T15:26:56.500Z,2.00
2022-08-23T15:28:28.085Z,2.07
2022-08-23T15:29:59.696Z,2.04
2022-08-23T15:31:31.434Z,1.92
2022-08-23T15:33:03.826Z,2.03
2022-08-23T15:34:35.854Z,2.20
2022-08-23T15:36:07.527Z,2.02
2022-08-23T15:37:39.882Z,1.83
2022-08-23T15:39:15.461Z,1.98
2022-08-23T15:40:47.167Z,1.82
2022-08-23T15:42:20.578Z,1.95
2022-08-23T15:43:53.806Z,1.93
2022-08-23T15:45:25.439Z,1.94
2022-08-23T15:47:02.544Z,2.08
2022-08-23T15:48:34.183Z,2.17
2022-08-23T15:50:06.042Z,2.21
2022-08-23T15:51:37.713Z,1.98
2022-08-23T15:53:09.456Z,2.00
2022-08-23T15:54:41.844Z,1.99
2022-08-23T15:56:18.121Z,1.88
2022-08-23T15:57:49.895Z,1.99
2022-08-23T15:59:21.972Z,1.93
2022-08-23T16:00:53.687Z,1.88
2022-08-23T16:02:25.572Z,1.87
2022-08-23T16:03:57.404Z,1.93
2022-08-23T16:05:29.443Z,2.00
2022-08-23T16:07:01.519Z,1.84
2022-08-23T16:08:34.026Z,1.83
2022-08-23T16:10:05.598Z,2.00
2022-08-23T16:11:37.434Z,2.00
2022-08-23T16:13:09.640Z,2.07
2022-08-23T16:14:41.475Z,1.91
2022-08-23T16:16:13.366Z,1.94
2022-08-23T16:17:45.752Z,1.90
2022-08-23T16:19:17.686Z,1.94
2022-08-23T16:20:54.432Z,1.81
2022-08-23T16:22:26.672Z,2.14
2022-08-23T16:23:58.481Z,2.08
2022-08-23T16:25:30.161Z,1.84
2022-08-23T16:27:01.800Z,2.09
2022-08-23T16:28:33.585Z,2.02
2022-08-23T16:30:05.348Z,1.91
2022-08-23T16:31:38.653Z,1.71
2022-08-23T16:33:11.482Z,1.97
2022-08-23T16:34:43.128Z,1.93
2022-08-23T16:36:14.868Z,2.01
2022-08-23T16:37:46.470Z,2.16
2022-08-23T16:39:18.580Z,1.88
2022-08-23T16:40:50.308Z,1.95
2022-08-23T16:42:22.443Z,1.98
2022-08-23T16:43:54.152Z,2.32
2022-08-23T16:45:26.396Z,1.93
2022-08-23T16:46:58.578Z,1.80
2022-08-23T16:48:30.280Z,2.01
2022-08-23T16:50:07.152Z,2.08
2022-08-23T16:51:38.969Z,2.31
2022-08-23T16:53:10.751Z,2.22
2022-08-23T16:54:42.754Z,2.30
2022-08-23T16:56:14.358Z,1.94
2022-08-23T16:57:46.234Z,1.99
2022-08-23T16:59:18.188Z,2.06
2022-08-23T17:00:49.953Z,2.28
2022-08-23T17:02:22.234Z,2.13
2022-08-23T17:03:53.891Z,2.31
2022-08-23T17:05:25.677Z,2.20
2022-08-23T17:06:57.352Z,2.05
2022-08-23T17:08:29.242Z,2.21
2022-08-23T17:10:00.825Z,2.40
2022-08-23T17:11:32.900Z,2.13
2022-08-23T17:13:09.971Z,1.89
2022-08-23T17:14:42.697Z,2.16
2022-08-23T17:16:16.395Z,1.99
2022-08-23T17:17:48.066Z,2.13
2022-08-23T17:19:19.623Z,2.00
2022-08-23T17:20:51.501Z,2.08
2022-08-23T17:22:23.112Z,2.09
2022-08-23T17:23:55.379Z,2.03
2022-08-23T17:25:38.504Z,2.05
2022-08-23T17:27:10.355Z,1.85
2022-08-23T17:29:06.947Z,2.09
2022-08-23T17:30:38.579Z,2.29
2022-08-23T17:32:10.122Z,2.05
2022-08-23T17:33:41.856Z,1.94
2022-08-23T17:35:15.046Z,2.13
2022-08-23T17:36:47.877Z,2.07
2022-08-23T17:38:44.722Z,2.23
2022-08-23T17:42:12.706Z,2.30
2022-08-23T17:43:44.211Z,2.25
2022-08-23T17:45:15.791Z,2.13
2022-08-23T17:47:19.206Z,2.15
2022-08-23T17:48:55.932Z,2.21
2022-08-23T17:50:28.048Z,2.24
2022-08-23T17:52:39.293Z,2.16
2022-08-23T17:54:11.000Z,2.24
2022-08-23T17:55:59.043Z,2.31
2022-08-23T17:57:35.907Z,2.22
2022-08-23T17:59:29.200Z,2.27
2022-08-23T18:01:01.575Z,2.15
2022-08-23T18:02:38.130Z,2.03
2022-08-23T18:04:24.976Z,2.18
2022-08-23T18:06:17.019Z,2.18
2022-08-23T18:08:07.165Z,2.45
2022-08-23T18:09:48.946Z,2.18
2022-08-23T18:11:37.472Z,1.98
2022-08-23T18:13:28.816Z,2.07
2022-08-23T18:15:00.321Z,2.30
2022-08-23T18:16:35.786Z,2.25
2022-08-23T18:18:12.555Z,2.20
2022-08-23T18:20:12.784Z,2.22
2022-08-23T18:21:53.331Z,2.13
2022-08-23T18:23:24.845Z,2.34
2022-08-23T18:24:56.351Z,2.34
2022-08-23T18:26:28.279Z,2.21
2022-08-23T18:28:14.747Z,2.20
2022-08-23T18:29:47.386Z,2.23
2022-08-23T18:31:23.407Z,2.16
2022-08-23T18:32:55.018Z,2.23
2022-08-23T18:34:31.635Z,2.07
2022-08-23T18:36:08.412Z,2.10
2022-08-23T18:37:39.936Z,2.13
2022-08-23T18:39:11.513Z,2.26
2022-08-23T18:40:48.634Z,2.18
2022-08-23T18:42:20.314Z,2.35
2022-08-23T18:44:05.645Z,2.19
2022-08-23T18:45:37.437Z,2.07
2022-08-23T18:47:08.931Z,2.30
2022-08-23T18:48:40.479Z,2.43
2022-08-23T18:50:12.445Z,2.31
2022-08-23T18:51:44.073Z,2.49
2022-08-23T18:53:20.572Z,2.43
2022-08-23T18:54:52.423Z,2.33
2022-08-23T18:56:24.443Z,2.36
2022-08-23T18:58:12.356Z,2.21
2022-08-23T18:59:44.617Z,2.32
2022-08-23T19:01:16.271Z,2.49
2022-08-23T19:02:48.051Z,2.62
2022-08-23T19:04:19.574Z,2.41
2022-08-23T19:06:01.054Z,2.48
2022-08-23T19:07:32.669Z,2.36
2022-08-23T19:09:13.010Z,2.38
2022-08-23T19:10:45.222Z,2.79
2022-08-23T19:12:16.863Z,2.44
2022-08-23T19:13:48.348Z,2.40
2022-08-23T19:15:24.864Z,2.35
2022-08-23T19:16:56.673Z,2.23
2022-08-23T19:18:28.266Z,2.54
2022-08-23T19:20:04.741Z,2.51
2022-08-23T19:22:22.394Z,2.64
2022-08-23T19:23:53.862Z,2.46
2022-08-23T19:25:35.287Z,2.39
2022-08-23T19:27:06.863Z,2.25
2022-08-23T19:28:38.417Z,2.70
2022-08-23T19:30:20.022Z,2.28
2022-08-23T19:32:11.696Z,2.23
2022-08-23T19:33:43.249Z,2.32
2022-08-23T19:35:16.310Z,2.43
2022-08-23T19:37:01.193Z,2.52
2022-08-23T19:38:33.220Z,2.70
2022-08-23T19:40:05.239Z,2.61
2022-08-23T19:41:41.927Z,3.18
2022-08-23T19:43:13.411Z,2.89
2022-08-23T19:44:45.135Z,2.90
2022-08-23T19:46:17.210Z,2.91
2022-08-23T19:48:08.636Z,3.10
2022-08-23T19:51:31.883Z,2.94
2022-08-23T19:53:29.351Z,2.63
2022-08-23T19:55:05.838Z,2.61
2022-08-23T19:56:38.976Z,2.59
2022-08-23T19:58:10.473Z,2.48
2022-08-23T19:59:42.044Z,2.77
2022-08-23T20:01:13.662Z,2.76
2022-08-23T20:02:45.216Z,2.86
2022-08-23T20:04:16.667Z,2.80
2022-08-23T20:05:49.344Z,2.68
2022-08-23T20:07:20.821Z,2.80
2022-08-23T20:08:52.410Z,2.95
2022-08-23T20:10:23.858Z,2.55
2022-08-23T20:11:55.391Z,2.59
2022-08-23T20:13:26.888Z,2.64
2022-08-23T20:15:27.836Z,2.59
2022-08-23T20:17:09.878Z,2.65
2022-08-23T20:18:41.850Z,2.83
2022-08-23T20:20:13.435Z,2.79
2022-08-23T20:21:45.032Z,2.59
2022-08-23T20:23:16.550Z,2.66
2022-08-23T20:24:51.955Z,2.59
2022-08-23T20:26:43.724Z,2.86
2022-08-23T20:28:15.626Z,2.75
2022-08-23T20:29:57.555Z,2.89
2022-08-23T20:31:39.947Z,2.72
2022-08-23T20:33:11.600Z,2.77
2022-08-23T20:35:03.031Z,2.63
2022-08-23T20:36:34.562Z,2.47
2022-08-23T20:38:06.184Z,2.54
2022-08-23T20:39:53.385Z,2.44
2022-08-23T20:41:30.219Z,2.71
2022-08-23T20:43:12.258Z,2.77
2022-08-23T20:44:43.874Z,2.87
2022-08-23T20:46:15.379Z,2.83
2022-08-23T20:47:47.081Z,2.73
2022-08-23T20:49:18.681Z,2.96